sensor_id;sensor_type;location;lat;lon;timestamp;P1;durP1;ratioP1;P2;durP2;ratioP2
7338;SDS011;33747;49.524;8.390;2023-02-28T00:01:36;2.55;;;1.77;;
7338;SDS011;33747;49.524;8.390;2023-02-28T00:04:01;3.65;;;1.70;;
7338;SDS011;33747;49.524;8.390;2023-02-28T00:06:27;5.18;;;1.90;;
7338;SDS011;33747;49.524;8.390;2023-02-28T00:08:53;2.45;;;1.80;;
7338;SDS011;33747;49.524;8.390;2023-02-28T00:11:18;2.83;;;1.73;;
7338;SDS011;33747;49.524;8.390;2023-02-28T00:13:44;2.60;;;1.75;;
7338;SDS011;33747;49.524;8.390;2023-02-28T00:16:20;3.03;;;1.70;;
7338;SDS011;33747;49.524;8.390;2023-02-28T00:18:46;2.13;;;1.92;;
7338;SDS011;33747;49.524;8.390;2023-02-28T00:21:15;2.53;;;1.80;;
7338;SDS011;33747;49.524;8.390;2023-02-28T00:23:41;4.35;;;1.88;;
7338;SDS011;33747;49.524;8.390;2023-02-28T00:26:07;2.20;;;1.70;;
7338;SDS011;33747;49.524;8.390;2023-02-28T00:28:33;4.60;;;1.95;;
7338;SDS011;33747;49.524;8.390;2023-02-28T00:30:58;3.17;;;1.90;;
7338;SDS011;33747;49.524;8.390;2023-02-28T00:33:24;3.78;;;1.88;;
7338;SDS011;33747;49.524;8.390;2023-02-28T00:35:50;3.63;;;2.10;;
7338;SDS011;33747;49.524;8.390;2023-02-28T00:38:18;3.28;;;2.25;;
7338;SDS011;33747;49.524;8.390;2023-02-28T00:40:47;3.70;;;1.83;;
7338;SDS011;33747;49.524;8.390;2023-02-28T00:43:12;3.28;;;2.25;;
7338;SDS011;33747;49.524;8.390;2023-02-28T00:45:37;1.90;;;1.80;;
7338;SDS011;33747;49.524;8.390;2023-02-28T00:48:03;4.20;;;2.08;;
7338;SDS011;33747;49.524;8.390;2023-02-28T00:50:29;4.57;;;1.98;;
7338;SDS011;33747;49.524;8.390;2023-02-28T00:52:54;3.47;;;1.92;;
7338;SDS011;33747;49.524;8.390;2023-02-28T00:55:19;2.70;;;2.22;;
7338;SDS011;33747;49.524;8.390;2023-02-28T00:57:45;2.47;;;2.28;;
7338;SDS011;33747;49.524;8.390;2023-02-28T01:00:10;3.25;;;2.20;;
7338;SDS011;33747;49.524;8.390;2023-02-28T01:02:36;5.25;;;2.20;;
7338;SDS011;33747;49.524;8.390;2023-02-28T01:05:02;2.28;;;1.90;;
7338;SDS011;33747;49.524;8.390;2023-02-28T01:07:28;3.35;;;2.00;;
7338;SDS011;33747;49.524;8.390;2023-02-28T01:09:53;2.80;;;2.08;;
7338;SDS011;33747;49.524;8.390;2023-02-28T01:12:18;3.47;;;2.30;;
7338;SDS011;33747;49.524;8.390;2023-02-28T01:14:44;2.58;;;2.10;;
7338;SDS011;33747;49.524;8.390;2023-02-28T01:17:10;3.95;;;2.58;;
7338;SDS011;33747;49.524;8.390;2023-02-28T01:19:35;3.30;;;1.98;;
7338;SDS011;33747;49.524;8.390;2023-02-28T01:22:02;5.25;;;2.30;;
7338;SDS011;33747;49.524;8.390;2023-02-28T01:24:28;4.28;;;2.20;;
7338;SDS011;33747;49.524;8.390;2023-02-28T01:26:53;3.28;;;2.28;;
7338;SDS011;33747;49.524;8.390;2023-02-28T01:29:19;2.47;;;2.28;;
7338;SDS011;33747;49.524;8.390;2023-02-28T01:31:44;2.45;;;2.25;;
7338;SDS011;33747;49.524;8.390;2023-02-28T01:34:10;3.72;;;2.03;;
7338;SDS011;33747;49.524;8.390;2023-02-28T01:36:35;3.42;;;2.42;;
7338;SDS011;33747;49.524;8.390;2023-02-28T01:39:01;2.88;;;2.20;;
7338;SDS011;33747;49.524;8.390;2023-02-28T01:41:28;2.65;;;2.30;;
7338;SDS011;33747;49.524;8.390;2023-02-28T01:44:03;8.27;;;2.78;;
7338;SDS011;33747;49.524;8.390;2023-02-28T01:46:32;4.97;;;2.53;;
7338;SDS011;33747;49.524;8.390;2023-02-28T01:49:00;4.93;;;3.05;;
7338;SDS011;33747;49.524;8.390;2023-02-28T01:51:44;3.53;;;2.58;;
7338;SDS011;33747;49.524;8.390;2023-02-28T01:54:23;4.38;;;2.95;;
7338;SDS011;33747;49.524;8.390;2023-02-28T01:57:05;5.63;;;3.17;;
7338;SDS011;33747;49.524;8.390;2023-02-28T01:59:37;2.70;;;2.50;;
7338;SDS011;33747;49.524;8.390;2023-02-28T02:02:10;3.30;;;3.00;;
7338;SDS011;33747;49.524;8.390;2023-02-28T02:04:40;3.83;;;2.95;;
7338;SDS011;33747;49.524;8.390;2023-02-28T02:07:11;3.33;;;2.80;;
7338;SDS011;33747;49.524;8.390;2023-02-28T02:09:38;4.43;;;2.58;;
7338;SDS011;33747;49.524;8.390;2023-02-28T02:12:07;3.53;;;3.00;;
7338;SDS011;33747;49.524;8.390;2023-02-28T02:14:55;3.60;;;2.53;;
7338;SDS011;33747;49.524;8.390;2023-02-28T02:17:32;3.63;;;2.75;;
7338;SDS011;33747;49.524;8.390;2023-02-28T02:20:27;3.63;;;2.80;;
7338;SDS011;33747;49.524;8.390;2023-02-28T02:25:45;3.97;;;2.30;;
7338;SDS011;33747;49.524;8.390;2023-02-28T02:28:32;6.47;;;2.95;;
7338;SDS011;33747;49.524;8.390;2023-02-28T02:31:09;4.85;;;2.85;;
7338;SDS011;33747;49.524;8.390;2023-02-28T02:34:10;5.32;;;2.38;;
7338;SDS011;33747;49.524;8.390;2023-02-28T02:39:53;6.38;;;2.80;;
7338;SDS011;33747;49.524;8.390;2023-02-28T02:42:27;2.72;;;2.30;;
7338;SDS011;33747;49.524;8.390;2023-02-28T02:45:02;5.35;;;2.95;;
7338;SDS011;33747;49.524;8.390;2023-02-28T02:47:31;3.22;;;2.83;;
7338;SDS011;33747;49.524;8.390;2023-02-28T02:49:59;3.20;;;2.70;;
7338;SDS011;33747;49.524;8.390;2023-02-28T02:52:41;4.95;;;3.00;;
7338;SDS011;33747;49.524;8.390;2023-02-28T02:55:09;4.47;;;2.75;;
7338;SDS011;33747;49.524;8.390;2023-02-28T02:57:38;4.78;;;3.25;;
7338;SDS011;33747;49.524;8.390;2023-02-28T03:00:08;3.70;;;2.95;;
7338;SDS011;33747;49.524;8.390;2023-02-28T03:02:34;3.78;;;2.67;;
7338;SDS011;33747;49.524;8.390;2023-02-28T03:05:02;3.50;;;2.58;;
7338;SDS011;33747;49.524;8.390;2023-02-28T03:07:32;3.40;;;3.03;;
7338;SDS011;33747;49.524;8.390;2023-02-28T03:10:00;3.80;;;2.58;;
7338;SDS011;33747;49.524;8.390;2023-02-28T03:12:35;6.28;;;3.35;;
7338;SDS011;33747;49.524;8.390;2023-02-28T03:17:53;3.67;;;2.50;;
7338;SDS011;33747;49.524;8.390;2023-02-28T03:20:38;4.30;;;3.08;;
7338;SDS011;33747;49.524;8.390;2023-02-28T03:26:20;3.05;;;2.60;;
7338;SDS011;33747;49.524;8.390;2023-02-28T03:31:44;4.10;;;3.08;;
7338;SDS011;33747;49.524;8.390;2023-02-28T03:34:29;3.42;;;3.03;;
7338;SDS011;33747;49.524;8.390;2023-02-28T03:36:57;4.53;;;3.35;;
7338;SDS011;33747;49.524;8.390;2023-02-28T03:39:29;6.65;;;3.05;;
7338;SDS011;33747;49.524;8.390;2023-02-28T03:42:21;5.53;;;3.47;;
7338;SDS011;33747;49.524;8.390;2023-02-28T03:44:59;5.80;;;3.25;;
7338;SDS011;33747;49.524;8.390;2023-02-28T03:49:54;4.70;;;2.97;;
7338;SDS011;33747;49.524;8.390;2023-02-28T03:52:33;3.90;;;2.95;;
7338;SDS011;33747;49.524;8.390;2023-02-28T03:55:01;3.72;;;2.75;;
7338;SDS011;33747;49.524;8.390;2023-02-28T03:57:40;5.40;;;3.30;;
7338;SDS011;33747;49.524;8.390;2023-02-28T04:00:14;3.85;;;2.83;;
7338;SDS011;33747;49.524;8.390;2023-02-28T04:02:44;4.70;;;3.17;;
7338;SDS011;33747;49.524;8.390;2023-02-28T04:05:10;2.83;;;2.63;;
7338;SDS011;33747;49.524;8.390;2023-02-28T04:07:36;4.60;;;2.90;;
7338;SDS011;33747;49.524;8.390;2023-02-28T04:10:02;3.60;;;2.78;;
7338;SDS011;33747;49.524;8.390;2023-02-28T04:12:28;3.88;;;3.30;;
7338;SDS011;33747;49.524;8.390;2023-02-28T04:14:54;5.35;;;3.50;;
7338;SDS011;33747;49.524;8.390;2023-02-28T04:17:19;3.05;;;2.75;;
7338;SDS011;33747;49.524;8.390;2023-02-28T04:19:44;5.85;;;3.33;;
7338;SDS011;33747;49.524;8.390;2023-02-28T04:22:10;4.00;;;3.00;;
7338;SDS011;33747;49.524;8.390;2023-02-28T04:24:44;3.60;;;3.17;;
7338;SDS011;33747;49.524;8.390;2023-02-28T04:27:10;4.43;;;2.83;;
7338;SDS011;33747;49.524;8.390;2023-02-28T04:29:35;3.05;;;2.65;;
7338;SDS011;33747;49.524;8.390;2023-02-28T04:32:01;4.18;;;3.03;;
7338;SDS011;33747;49.524;8.390;2023-02-28T04:34:27;4.13;;;2.58;;
7338;SDS011;33747;49.524;8.390;2023-02-28T04:36:54;4.05;;;3.28;;
7338;SDS011;33747;49.524;8.390;2023-02-28T04:39:21;5.72;;;3.15;;
7338;SDS011;33747;49.524;8.390;2023-02-28T04:41:47;5.15;;;3.90;;
7338;SDS011;33747;49.524;8.390;2023-02-28T04:44:13;6.13;;;2.90;;
7338;SDS011;33747;49.524;8.390;2023-02-28T04:46:39;3.55;;;3.22;;
7338;SDS011;33747;49.524;8.390;2023-02-28T04:49:04;3.28;;;2.67;;
7338;SDS011;33747;49.524;8.390;2023-02-28T04:51:30;4.35;;;2.90;;
7338;SDS011;33747;49.524;8.390;2023-02-28T04:53:55;5.60;;;3.15;;
7338;SDS011;33747;49.524;8.390;2023-02-28T04:56:21;3.28;;;2.55;;
7338;SDS011;33747;49.524;8.390;2023-02-28T04:58:47;4.05;;;3.00;;
7338;SDS011;33747;49.524;8.390;2023-02-28T05:03:51;5.18;;;2.95;;
7338;SDS011;33747;49.524;8.390;2023-02-28T05:06:18;4.57;;;3.13;;
7338;SDS011;33747;49.524;8.390;2023-02-28T05:08:44;4.03;;;3.28;;
7338;SDS011;33747;49.524;8.390;2023-02-28T05:11:14;6.38;;;3.45;;
7338;SDS011;33747;49.524;8.390;2023-02-28T05:13:42;7.30;;;3.17;;
7338;SDS011;33747;49.524;8.390;2023-02-28T05:16:07;7.88;;;3.28;;
7338;SDS011;33747;49.524;8.390;2023-02-28T05:18:33;7.88;;;3.50;;
7338;SDS011;33747;49.524;8.390;2023-02-28T05:21:02;3.92;;;3.50;;
7338;SDS011;33747;49.524;8.390;2023-02-28T05:23:28;5.80;;;3.10;;
7338;SDS011;33747;49.524;8.390;2023-02-28T05:25:53;3.35;;;3.03;;
7338;SDS011;33747;49.524;8.390;2023-02-28T05:28:19;5.07;;;3.75;;
7338;SDS011;33747;49.524;8.390;2023-02-28T05:30:44;7.95;;;3.75;;
7338;SDS011;33747;49.524;8.390;2023-02-28T05:33:10;3.30;;;2.70;;
7338;SDS011;33747;49.524;8.390;2023-02-28T05:35:37;5.07;;;3.53;;
7338;SDS011;33747;49.524;8.390;2023-02-28T05:38:03;4.38;;;3.28;;
7338;SDS011;33747;49.524;8.390;2023-02-28T05:40:29;14.30;;;3.95;;
7338;SDS011;33747;49.524;8.390;2023-02-28T05:42:54;4.35;;;3.40;;
7338;SDS011;33747;49.524;8.390;2023-02-28T05:45:19;10.65;;;3.78;;
7338;SDS011;33747;49.524;8.390;2023-02-28T05:47:45;6.13;;;3.13;;
7338;SDS011;33747;49.524;8.390;2023-02-28T05:50:10;5.50;;;3.88;;
7338;SDS011;33747;49.524;8.390;2023-02-28T05:52:36;6.30;;;3.80;;
7338;SDS011;33747;49.524;8.390;2023-02-28T05:55:02;7.35;;;3.60;;
7338;SDS011;33747;49.524;8.390;2023-02-28T05:57:34;4.28;;;3.33;;
7338;SDS011;33747;49.524;8.390;2023-02-28T06:00:00;3.88;;;3.58;;
7338;SDS011;33747;49.524;8.390;2023-02-28T06:02:25;7.43;;;3.53;;
7338;SDS011;33747;49.524;8.390;2023-02-28T06:04:51;5.03;;;3.20;;
7338;SDS011;33747;49.524;8.390;2023-02-28T06:07:16;5.32;;;3.70;;
7338;SDS011;33747;49.524;8.390;2023-02-28T06:09:42;5.00;;;3.47;;
7338;SDS011;33747;49.524;8.390;2023-02-28T06:12:08;7.72;;;4.07;;
7338;SDS011;33747;49.524;8.390;2023-02-28T06:14:37;8.02;;;3.72;;
7338;SDS011;33747;49.524;8.390;2023-02-28T06:17:03;4.60;;;3.25;;
7338;SDS011;33747;49.524;8.390;2023-02-28T06:19:30;8.63;;;4.35;;
7338;SDS011;33747;49.524;8.390;2023-02-28T06:21:56;3.97;;;3.15;;
7338;SDS011;33747;49.524;8.390;2023-02-28T06:24:22;7.30;;;4.10;;
7338;SDS011;33747;49.524;8.390;2023-02-28T06:26:48;7.60;;;3.85;;
7338;SDS011;33747;49.524;8.390;2023-02-28T06:29:16;5.28;;;3.63;;
7338;SDS011;33747;49.524;8.390;2023-02-28T06:31:43;7.72;;;3.55;;
7338;SDS011;33747;49.524;8.390;2023-02-28T06:34:09;6.55;;;3.75;;
7338;SDS011;33747;49.524;8.390;2023-02-28T06:36:37;6.82;;;3.50;;
7338;SDS011;33747;49.524;8.390;2023-02-28T06:39:02;5.68;;;3.90;;
7338;SDS011;33747;49.524;8.390;2023-02-28T06:41:28;5.32;;;4.00;;
7338;SDS011;33747;49.524;8.390;2023-02-28T06:43:53;4.18;;;3.42;;
7338;SDS011;33747;49.524;8.390;2023-02-28T06:46:19;5.53;;;3.53;;
7338;SDS011;33747;49.524;8.390;2023-02-28T06:48:45;5.72;;;4.13;;
7338;SDS011;33747;49.524;8.390;2023-02-28T06:51:12;8.07;;;4.28;;
7338;SDS011;33747;49.524;8.390;2023-02-28T06:53:39;3.35;;;3.00;;
7338;SDS011;33747;49.524;8.390;2023-02-28T06:56:09;7.00;;;3.97;;
7338;SDS011;33747;49.524;8.390;2023-02-28T06:58:36;5.05;;;3.88;;
7338;SDS011;33747;49.524;8.390;2023-02-28T07:01:03;6.47;;;3.58;;
7338;SDS011;33747;49.524;8.390;2023-02-28T07:03:29;4.60;;;3.40;;
7338;SDS011;33747;49.524;8.390;2023-02-28T07:05:55;4.43;;;3.53;;
7338;SDS011;33747;49.524;8.390;2023-02-28T07:08:21;6.60;;;4.05;;
7338;SDS011;33747;49.524;8.390;2023-02-28T07:10:47;7.10;;;4.10;;
7338;SDS011;33747;49.524;8.390;2023-02-28T07:13:13;5.80;;;3.88;;
7338;SDS011;33747;49.524;8.390;2023-02-28T07:15:38;4.55;;;3.58;;
7338;SDS011;33747;49.524;8.390;2023-02-28T07:18:04;3.88;;;3.40;;
7338;SDS011;33747;49.524;8.390;2023-02-28T07:20:29;5.18;;;3.35;;
7338;SDS011;33747;49.524;8.390;2023-02-28T07:22:55;6.10;;;3.97;;
7338;SDS011;33747;49.524;8.390;2023-02-28T07:25:27;6.82;;;3.30;;
7338;SDS011;33747;49.524;8.390;2023-02-28T07:27:53;5.47;;;3.55;;
7338;SDS011;33747;49.524;8.390;2023-02-28T07:30:19;7.95;;;3.88;;
7338;SDS011;33747;49.524;8.390;2023-02-28T07:32:44;3.90;;;3.47;;
7338;SDS011;33747;49.524;8.390;2023-02-28T07:35:10;7.35;;;3.85;;
7338;SDS011;33747;49.524;8.390;2023-02-28T07:37:35;5.78;;;3.97;;
7338;SDS011;33747;49.524;8.390;2023-02-28T07:40:04;7.18;;;4.40;;
7338;SDS011;33747;49.524;8.390;2023-02-28T07:42:33;5.82;;;3.80;;
7338;SDS011;33747;49.524;8.390;2023-02-28T07:45:01;4.80;;;3.70;;
7338;SDS011;33747;49.524;8.390;2023-02-28T07:47:30;11.50;;;3.90;;
7338;SDS011;33747;49.524;8.390;2023-02-28T07:49:56;11.65;;;4.30;;
7338;SDS011;33747;49.524;8.390;2023-02-28T07:52:21;4.82;;;3.85;;
7338;SDS011;33747;49.524;8.390;2023-02-28T07:54:48;4.57;;;3.10;;
7338;SDS011;33747;49.524;8.390;2023-02-28T07:57:14;6.05;;;4.93;;
7338;SDS011;33747;49.524;8.390;2023-02-28T07:59:39;6.40;;;3.53;;
7338;SDS011;33747;49.524;8.390;2023-02-28T08:02:05;4.90;;;3.80;;
7338;SDS011;33747;49.524;8.390;2023-02-28T08:04:33;4.45;;;3.35;;
7338;SDS011;33747;49.524;8.390;2023-02-28T08:06:59;6.55;;;3.92;;
7338;SDS011;33747;49.524;8.390;2023-02-28T08:09:24;9.25;;;4.38;;
7338;SDS011;33747;49.524;8.390;2023-02-28T08:11:49;8.20;;;4.45;;
7338;SDS011;33747;49.524;8.390;2023-02-28T08:14:15;17.13;;;3.75;;
7338;SDS011;33747;49.524;8.390;2023-02-28T08:16:40;6.15;;;4.32;;
7338;SDS011;33747;49.524;8.390;2023-02-28T08:19:08;9.27;;;3.97;;
7338;SDS011;33747;49.524;8.390;2023-02-28T08:21:33;6.82;;;4.22;;
7338;SDS011;33747;49.524;8.390;2023-02-28T08:23:59;5.47;;;3.97;;
7338;SDS011;33747;49.524;8.390;2023-02-28T08:26:24;11.70;;;4.60;;
7338;SDS011;33747;49.524;8.390;2023-02-28T08:28:50;9.27;;;4.50;;
7338;SDS011;33747;49.524;8.390;2023-02-28T08:31:15;10.52;;;4.93;;
7338;SDS011;33747;49.524;8.390;2023-02-28T08:33:42;7.85;;;4.13;;
7338;SDS011;33747;49.524;8.390;2023-02-28T08:36:08;8.40;;;4.97;;
7338;SDS011;33747;49.524;8.390;2023-02-28T08:38:34;8.55;;;4.18;;
7338;SDS011;33747;49.524;8.390;2023-02-28T08:41:01;7.97;;;4.68;;
7338;SDS011;33747;49.524;8.390;2023-02-28T08:43:30;7.65;;;4.43;;
7338;SDS011;33747;49.524;8.390;2023-02-28T08:45:56;9.35;;;4.60;;
7338;SDS011;33747;49.524;8.390;2023-02-28T08:48:25;9.32;;;4.60;;
7338;SDS011;33747;49.524;8.390;2023-02-28T08:50:57;5.90;;;4.25;;
7338;SDS011;33747;49.524;8.390;2023-02-28T08:53:24;9.30;;;5.00;;
7338;SDS011;33747;49.524;8.390;2023-02-28T08:56:23;9.48;;;4.40;;
7338;SDS011;33747;49.524;8.390;2023-02-28T08:58:42;11.25;;;4.70;;
7338;SDS011;33747;49.524;8.390;2023-02-28T09:01:17;9.63;;;4.97;;
7338;SDS011;33747;49.524;8.390;2023-02-28T09:03:46;11.50;;;5.05;;
7338;SDS011;33747;49.524;8.390;2023-02-28T09:06:13;11.85;;;5.13;;
7338;SDS011;33747;49.524;8.390;2023-02-28T09:08:39;7.45;;;4.63;;
7338;SDS011;33747;49.524;8.390;2023-02-28T09:11:05;12.15;;;5.22;;
7338;SDS011;33747;49.524;8.390;2023-02-28T09:13:31;7.00;;;4.25;;
7338;SDS011;33747;49.524;8.390;2023-02-28T09:15:57;8.57;;;5.25;;
7338;SDS011;33747;49.524;8.390;2023-02-28T09:18:24;23.65;;;4.80;;
7338;SDS011;33747;49.524;8.390;2023-02-28T09:20:49;9.48;;;4.82;;
7338;SDS011;33747;49.524;8.390;2023-02-28T09:23:15;5.10;;;3.30;;
7338;SDS011;33747;49.524;8.390;2023-02-28T09:25:49;8.10;;;5.13;;
7338;SDS011;33747;49.524;8.390;2023-02-28T09:28:15;10.77;;;5.25;;
7338;SDS011;33747;49.524;8.390;2023-02-28T09:30:41;8.00;;;4.97;;
7338;SDS011;33747;49.524;8.390;2023-02-28T09:33:07;7.13;;;4.85;;
7338;SDS011;33747;49.524;8.390;2023-02-28T09:35:33;8.10;;;5.22;;
7338;SDS011;33747;49.524;8.390;2023-02-28T09:37:58;8.40;;;6.45;;
7338;SDS011;33747;49.524;8.390;2023-02-28T09:40:24;35.88;;;19.58;;
7338;SDS011;33747;49.524;8.390;2023-02-28T09:42:51;7.00;;;5.47;;
7338;SDS011;33747;49.524;8.390;2023-02-28T09:45:29;6.25;;;5.03;;
7338;SDS011;33747;49.524;8.390;2023-02-28T09:48:02;4.00;;;2.92;;
7338;SDS011;33747;49.524;8.390;2023-02-28T09:50:30;7.40;;;4.53;;
7338;SDS011;33747;49.524;8.390;2023-02-28T09:52:59;8.45;;;4.82;;
7338;SDS011;33747;49.524;8.390;2023-02-28T09:55:29;7.93;;;5.22;;
7338;SDS011;33747;49.524;8.390;2023-02-28T09:57:58;8.57;;;4.82;;
7338;SDS011;33747;49.524;8.390;2023-02-28T10:05:34;7.07;;;5.00;;
7338;SDS011;33747;49.524;8.390;2023-02-28T10:10:51;12.88;;;5.10;;
7338;SDS011;33747;49.524;8.390;2023-02-28T10:16:20;7.03;;;4.30;;
7338;SDS011;33747;49.524;8.390;2023-02-28T10:18:57;7.82;;;5.05;;
7338;SDS011;33747;49.524;8.390;2023-02-28T10:21:28;8.70;;;5.35;;
7338;SDS011;33747;49.524;8.390;2023-02-28T10:24:20;7.38;;;5.43;;
7338;SDS011;33747;49.524;8.390;2023-02-28T10:26:45;11.45;;;6.07;;
7338;SDS011;33747;49.524;8.390;2023-02-28T10:29:12;10.30;;;6.70;;
7338;SDS011;33747;49.524;8.390;2023-02-28T10:31:38;7.75;;;5.10;;
7338;SDS011;33747;49.524;8.390;2023-02-28T10:34:03;10.10;;;5.70;;
7338;SDS011;33747;49.524;8.390;2023-02-28T10:36:31;9.40;;;5.63;;
7338;SDS011;33747;49.524;8.390;2023-02-28T10:38:56;8.02;;;5.47;;
7338;SDS011;33747;49.524;8.390;2023-02-28T10:41:31;9.80;;;6.90;;
7338;SDS011;33747;49.524;8.390;2023-02-28T10:46:43;8.30;;;5.05;;
7338;SDS011;33747;49.524;8.390;2023-02-28T10:49:17;13.75;;;4.88;;
7338;SDS011;33747;49.524;8.390;2023-02-28T10:52:00;8.38;;;5.20;;
7338;SDS011;33747;49.524;8.390;2023-02-28T10:59:40;20.13;;;9.25;;
7338;SDS011;33747;49.524;8.390;2023-02-28T11:04:59;11.30;;;6.57;;
7338;SDS011;33747;49.524;8.390;2023-02-28T11:07:25;17.75;;;9.00;;
7338;SDS011;33747;49.524;8.390;2023-02-28T11:09:52;8.45;;;6.57;;
7338;SDS011;33747;49.524;8.390;2023-02-28T11:12:23;18.55;;;9.48;;
7338;SDS011;33747;49.524;8.390;2023-02-28T11:14:58;10.82;;;4.97;;
7338;SDS011;33747;49.524;8.390;2023-02-28T11:17:26;9.38;;;5.75;;
7338;SDS011;33747;49.524;8.390;2023-02-28T11:19:54;8.50;;;5.82;;
7338;SDS011;33747;49.524;8.390;2023-02-28T11:22:45;11.13;;;6.22;;
7338;SDS011;33747;49.524;8.390;2023-02-28T11:25:28;9.27;;;5.70;;
7338;SDS011;33747;49.524;8.390;2023-02-28T11:27:55;8.27;;;5.80;;
7338;SDS011;33747;49.524;8.390;2023-02-28T11:30:23;12.85;;;5.68;;
7338;SDS011;33747;49.524;8.390;2023-02-28T11:32:52;8.75;;;5.15;;
7338;SDS011;33747;49.524;8.390;2023-02-28T11:35:20;10.35;;;6.25;;
7338;SDS011;33747;49.524;8.390;2023-02-28T11:37:51;10.77;;;5.50;;
7338;SDS011;33747;49.524;8.390;2023-02-28T11:43:22;12.18;;;7.22;;
7338;SDS011;33747;49.524;8.390;2023-02-28T11:48:39;10.05;;;5.65;;
7338;SDS011;33747;49.524;8.390;2023-02-28T11:51:14;7.80;;;5.72;;
7338;SDS011;33747;49.524;8.390;2023-02-28T11:56:37;8.35;;;5.35;;
7338;SDS011;33747;49.524;8.390;2023-02-28T11:59:18;12.07;;;5.97;;
7338;SDS011;33747;49.524;8.390;2023-02-28T12:02:00;11.52;;;6.22;;
7338;SDS011;33747;49.524;8.390;2023-02-28T12:07:03;7.47;;;5.15;;
7338;SDS011;33747;49.524;8.390;2023-02-28T12:09:46;8.43;;;5.70;;
7338;SDS011;33747;49.524;8.390;2023-02-28T12:12:44;9.60;;;5.65;;
7338;SDS011;33747;49.524;8.390;2023-02-28T12:15:50;7.03;;;5.30;;
7338;SDS011;33747;49.524;8.390;2023-02-28T12:18:30;7.57;;;5.20;;
7338;SDS011;33747;49.524;8.390;2023-02-28T12:26:48;8.15;;;5.50;;
7338;SDS011;33747;49.524;8.390;2023-02-28T12:31:49;6.57;;;5.32;;
7338;SDS011;33747;49.524;8.390;2023-02-28T12:34:22;8.98;;;5.85;;
7338;SDS011;33747;49.524;8.390;2023-02-28T12:36:52;9.15;;;5.45;;
7338;SDS011;33747;49.524;8.390;2023-02-28T12:39:20;9.10;;;5.50;;
7338;SDS011;33747;49.524;8.390;2023-02-28T12:41:50;9.82;;;5.25;;
7338;SDS011;33747;49.524;8.390;2023-02-28T12:44:23;8.43;;;5.72;;
7338;SDS011;33747;49.524;8.390;2023-02-28T12:46:58;7.22;;;4.72;;
7338;SDS011;33747;49.524;8.390;2023-02-28T12:49:28;10.20;;;6.18;;
7338;SDS011;33747;49.524;8.390;2023-02-28T12:51:56;9.50;;;6.45;;
7338;SDS011;33747;49.524;8.390;2023-02-28T13:05:38;8.50;;;6.43;;
7338;SDS011;33747;49.524;8.390;2023-02-28T13:11:26;10.00;;;6.00;;
7338;SDS011;33747;49.524;8.390;2023-02-28T13:14:16;10.02;;;6.10;;
7338;SDS011;33747;49.524;8.390;2023-02-28T13:16:55;9.93;;;6.10;;
7338;SDS011;33747;49.524;8.390;2023-02-28T13:19:38;11.93;;;6.68;;
7338;SDS011;33747;49.524;8.390;2023-02-28T13:25:51;10.40;;;6.38;;
7338;SDS011;33747;49.524;8.390;2023-02-28T13:28:10;8.52;;;6.45;;
7338;SDS011;33747;49.524;8.390;2023-02-28T13:31:09;12.55;;;6.63;;
7338;SDS011;33747;49.524;8.390;2023-02-28T13:33:30;10.97;;;5.93;;
7338;SDS011;33747;49.524;8.390;2023-02-28T13:36:30;13.27;;;6.85;;
7338;SDS011;33747;49.524;8.390;2023-02-28T13:44:01;6.70;;;5.35;;
7338;SDS011;33747;49.524;8.390;2023-02-28T13:46:30;5.82;;;5.20;;
7338;SDS011;33747;49.524;8.390;2023-02-28T13:48:56;9.95;;;5.97;;
7338;SDS011;33747;49.524;8.390;2023-02-28T13:51:33;7.50;;;6.10;;
7338;SDS011;33747;49.524;8.390;2023-02-28T13:54:05;9.95;;;6.75;;
7338;SDS011;33747;49.524;8.390;2023-02-28T14:05:21;8.02;;;6.45;;
7338;SDS011;33747;49.524;8.390;2023-02-28T14:07:51;9.05;;;6.55;;
7338;SDS011;33747;49.524;8.390;2023-02-28T14:10:23;10.52;;;7.30;;
7338;SDS011;33747;49.524;8.390;2023-02-28T14:12:58;11.02;;;6.35;;
7338;SDS011;33747;49.524;8.390;2023-02-28T14:15:26;7.90;;;5.75;;
7338;SDS011;33747;49.524;8.390;2023-02-28T14:17:55;9.80;;;6.38;;
7338;SDS011;33747;49.524;8.390;2023-02-28T14:20:22;13.80;;;7.10;;
7338;SDS011;33747;49.524;8.390;2023-02-28T14:22:53;16.63;;;5.07;;
7338;SDS011;33747;49.524;8.390;2023-02-28T14:25:40;8.60;;;7.13;;
7338;SDS011;33747;49.524;8.390;2023-02-28T14:30:57;8.52;;;6.35;;
7338;SDS011;33747;49.524;8.390;2023-02-28T14:36:00;10.90;;;7.35;;
7338;SDS011;33747;49.524;8.390;2023-02-28T14:38:45;8.45;;;6.50;;
7338;SDS011;33747;49.524;8.390;2023-02-28T14:41:20;10.77;;;5.78;;
7338;SDS011;33747;49.524;8.390;2023-02-28T14:43:54;8.77;;;6.05;;
7338;SDS011;33747;49.524;8.390;2023-02-28T14:46:25;8.82;;;5.80;;
7338;SDS011;33747;49.524;8.390;2023-02-28T14:48:58;11.88;;;6.32;;
7338;SDS011;33747;49.524;8.390;2023-02-28T14:51:24;9.35;;;6.53;;
7338;SDS011;33747;49.524;8.390;2023-02-28T14:53:51;8.57;;;6.65;;
7338;SDS011;33747;49.524;8.390;2023-02-28T14:56:29;7.90;;;6.10;;
7338;SDS011;33747;49.524;8.390;2023-02-28T14:59:01;10.88;;;6.25;;
7338;SDS011;33747;49.524;8.390;2023-02-28T15:01:30;9.88;;;6.40;;
7338;SDS011;33747;49.524;8.390;2023-02-28T15:04:04;14.32;;;6.68;;
7338;SDS011;33747;49.524;8.390;2023-02-28T15:06:30;8.23;;;6.32;;
7338;SDS011;33747;49.524;8.390;2023-02-28T15:09:09;10.35;;;6.05;;
7338;SDS011;33747;49.524;8.390;2023-02-28T15:11:42;8.45;;;5.75;;
7338;SDS011;33747;49.524;8.390;2023-02-28T15:14:18;12.50;;;6.72;;
7338;SDS011;33747;49.524;8.390;2023-02-28T15:16:44;17.80;;;5.78;;
7338;SDS011;33747;49.524;8.390;2023-02-28T15:21:50;9.85;;;6.28;;
7338;SDS011;33747;49.524;8.390;2023-02-28T15:24:21;10.15;;;6.68;;
7338;SDS011;33747;49.524;8.390;2023-02-28T15:27:02;11.80;;;7.00;;
7338;SDS011;33747;49.524;8.390;2023-02-28T15:29:30;7.68;;;5.78;;
7338;SDS011;33747;49.524;8.390;2023-02-28T15:32:05;8.07;;;5.70;;
7338;SDS011;33747;49.524;8.390;2023-02-28T15:34:36;8.43;;;5.68;;
7338;SDS011;33747;49.524;8.390;2023-02-28T15:37:06;10.70;;;5.75;;
7338;SDS011;33747;49.524;8.390;2023-02-28T15:39:50;9.07;;;5.97;;
7338;SDS011;33747;49.524;8.390;2023-02-28T15:42:19;9.95;;;5.78;;
7338;SDS011;33747;49.524;8.390;2023-02-28T15:44:46;11.07;;;6.85;;
7338;SDS011;33747;49.524;8.390;2023-02-28T15:47:21;14.00;;;8.60;;
7338;SDS011;33747;49.524;8.390;2023-02-28T15:50:05;8.00;;;6.03;;
7338;SDS011;33747;49.524;8.390;2023-02-28T15:52:38;11.85;;;6.72;;
7338;SDS011;33747;49.524;8.390;2023-02-28T15:55:08;9.10;;;6.63;;
7338;SDS011;33747;49.524;8.390;2023-02-28T15:57:34;12.13;;;7.15;;
7338;SDS011;33747;49.524;8.390;2023-02-28T16:00:00;14.75;;;6.97;;
7338;SDS011;33747;49.524;8.390;2023-02-28T16:02:35;8.65;;;5.80;;
7338;SDS011;33747;49.524;8.390;2023-02-28T16:07:36;10.45;;;6.68;;
7338;SDS011;33747;49.524;8.390;2023-02-28T16:10:04;12.68;;;8.43;;
7338;SDS011;33747;49.524;8.390;2023-02-28T16:12:31;14.82;;;7.35;;
7338;SDS011;33747;49.524;8.390;2023-02-28T16:14:59;14.10;;;8.25;;
7338;SDS011;33747;49.524;8.390;2023-02-28T16:17:28;88.30;;;41.33;;
7338;SDS011;33747;49.524;8.390;2023-02-28T16:19:55;68.88;;;30.67;;
7338;SDS011;33747;49.524;8.390;2023-02-28T16:22:21;28.88;;;18.42;;
7338;SDS011;33747;49.524;8.390;2023-02-28T16:24:46;11.60;;;8.02;;
7338;SDS011;33747;49.524;8.390;2023-02-28T16:27:21;13.85;;;8.95;;
7338;SDS011;33747;49.524;8.390;2023-02-28T16:29:56;16.35;;;10.10;;
7338;SDS011;33747;49.524;8.390;2023-02-28T16:32:24;15.10;;;7.55;;
7338;SDS011;33747;49.524;8.390;2023-02-28T16:34:49;10.73;;;7.07;;
7338;SDS011;33747;49.524;8.390;2023-02-28T16:37:16;10.57;;;6.65;;
7338;SDS011;33747;49.524;8.390;2023-02-28T16:39:43;12.70;;;8.18;;
7338;SDS011;33747;49.524;8.390;2023-02-28T16:42:11;12.98;;;8.20;;
7338;SDS011;33747;49.524;8.390;2023-02-28T16:44:41;14.27;;;8.63;;
7338;SDS011;33747;49.524;8.390;2023-02-28T16:47:08;8.77;;;6.18;;
7338;SDS011;33747;49.524;8.390;2023-02-28T16:49:35;11.40;;;7.53;;
7338;SDS011;33747;49.524;8.390;2023-02-28T16:52:00;11.85;;;6.68;;
7338;SDS011;33747;49.524;8.390;2023-02-28T16:54:26;11.00;;;8.18;;
7338;SDS011;33747;49.524;8.390;2023-02-28T16:56:51;12.02;;;6.85;;